createdAt,value
2018-05-08T00:00:14.457Z,55.82
2018-05-08T00:02:41.866Z,56.31
2018-05-08T00:05:09.303Z,55.97
2018-05-08T00:07:36.693Z,56.67
2018-05-08T00:10:04.095Z,56.72
2018-05-08T00:12:31.521Z,57.15
2018-05-08T00:14:58.965Z,57.33
2018-05-08T00:17:26.376Z,57.55
2018-05-08T00:19:53.873Z,57.31
2018-05-08T00:22:21.284Z,57.49
2018-05-08T00:24:48.756Z,57.99
2018-05-08T00:27:16.179Z,58.05
2018-05-08T00:29:43.567Z,58.09
2018-05-08T00:32:11.015Z,58.38
2018-05-08T00:34:38.462Z,58.33
2018-05-08T00:37:05.841Z,58.46
2018-05-08T00:39:33.240Z,58.36
2018-05-08T00:42:00.652Z,58.29
2018-05-08T00:44:28.045Z,58.75
2018-05-08T00:46:55.526Z,58.52
2018-05-08T00:49:22.921Z,59.10
2018-05-08T00:51:50.325Z,59.54
2018-05-08T00:54:18.286Z,59.58
2018-05-08T00:56:45.672Z,59.61
2018-05-08T00:59:13.117Z,59.66
2018-05-08T01:01:40.573Z,59.54
2018-05-08T01:04:07.957Z,59.54
2018-05-08T01:06:35.355Z,59.88
2018-05-08T01:09:02.798Z,59.94
2018-05-08T01:11:30.301Z,60.12
2018-05-08T01:13:57.713Z,60.61
2018-05-08T01:16:25.117Z,60.72
2018-05-08T01:18:52.524Z,60.76
2018-05-08T01:21:19.929Z,61.11
2018-05-08T01:23:47.317Z,61.31
2018-05-08T01:26:14.801Z,61.44
2018-05-08T01:28:42.254Z,61.65
2018-05-08T01:31:09.637Z,61.56
2018-05-08T01:33:37.052Z,61.55
2018-05-08T01:36:04.513Z,60.91
2018-05-08T01:38:31.905Z,61.55
2018-05-08T01:40:59.329Z,61.44
2018-05-08T01:43:26.750Z,61.98
2018-05-08T01:45:54.157Z,62.53
2018-05-08T01:48:21.562Z,63.28
2018-05-08T01:50:49.069Z,63.46
2018-05-08T01:53:16.472Z,63.43
2018-05-08T01:55:43.869Z,63.22
2018-05-08T01:58:11.338Z,62.64
2018-05-08T02:00:38.856Z,62.83
2018-05-08T02:03:06.334Z,62.61
2018-05-08T02:05:33.792Z,63.26
2018-05-08T02:08:01.185Z,63.60
2018-05-08T02:10:28.581Z,64.00
2018-05-08T02:12:56.069Z,63.93
2018-05-08T02:15:23.529Z,64.88
2018-05-08T02:17:50.995Z,64.58
2018-05-08T02:20:18.455Z,64.57
2018-05-08T02:22:48.209Z,64.20
2018-05-08T02:25:15.661Z,64.04
2018-05-08T02:27:43.062Z,63.98
2018-05-08T02:30:10.466Z,65.02
2018-05-08T02:32:37.866Z,64.83
2018-05-08T02:35:05.256Z,65.18
2018-05-08T02:37:32.654Z,65.61
2018-05-08T02:40:00.897Z,65.98
2018-05-08T02:42:28.357Z,65.83
2018-05-08T02:44:55.757Z,65.44
2018-05-08T02:47:23.166Z,65.71
2018-05-08T02:49:50.648Z,65.69
2018-05-08T02:52:18.061Z,65.58
2018-05-08T02:54:45.565Z,66.00
2018-05-08T02:57:13.002Z,66.05
2018-05-08T02:59:40.393Z,66.10
2018-05-08T03:02:07.817Z,66.12
2018-05-08T03:04:36.170Z,66.19
2018-05-08T03:07:03.598Z,65.97
2018-05-08T03:09:31.070Z,65.25
2018-05-08T03:11:58.522Z,65.63
2018-05-08T03:14:25.923Z,66.40
2018-05-08T03:16:53.422Z,66.43
2018-05-08T03:19:20.841Z,66.87
2018-05-08T03:21:48.250Z,66.77
2018-05-08T03:24:15.637Z,67.22
2018-05-08T03:26:43.024Z,67.05
2018-05-08T03:29:10.506Z,67.66
2018-05-08T03:31:37.889Z,67.86
2018-05-08T03:34:05.301Z,68.84
2018-05-08T03:36:32.786Z,68.91
2018-05-08T03:41:38.351Z,69.93
2018-05-08T03:44:05.749Z,70.08
2018-05-08T03:46:33.154Z,70.33
2018-05-08T03:49:00.610Z,70.06
2018-05-08T03:51:28.003Z,70.07
2018-05-08T03:53:55.431Z,69.71
2018-05-08T03:56:22.832Z,69.99
2018-05-08T03:58:50.222Z,70.20
2018-05-08T04:01:29.650Z,69.74
2018-05-08T04:04:08.853Z,69.96
2018-05-08T04:07:01.833Z,70.36
2018-05-08T04:09:29.242Z,70.69
2018-05-08T04:11:56.653Z,70.40
2018-05-08T04:14:26.968Z,70.34
2018-05-08T04:16:54.415Z,70.43
2018-05-08T04:19:21.801Z,70.56
2018-05-08T04:21:49.190Z,71.09
2018-05-08T04:24:16.589Z,70.62
2018-05-08T04:26:43.984Z,70.63
2018-05-08T04:29:11.473Z,70.74
2018-05-08T04:31:38.937Z,71.23
2018-05-08T04:34:06.328Z,71.10
2018-05-08T04:36:33.797Z,70.93
2018-05-08T04:39:01.117Z,70.76
2018-05-08T04:41:28.497Z,70.49
2018-05-08T04:43:55.911Z,69.95
2018-05-08T04:46:23.285Z,69.32
2018-05-08T04:48:50.739Z,69.20
2018-05-08T04:51:18.127Z,68.97
2018-05-08T04:53:45.662Z,68.71
2018-05-08T04:56:13.037Z,68.41
2018-05-08T04:58:40.425Z,67.94
2018-05-08T05:01:07.922Z,68.03
2018-05-08T05:03:35.317Z,67.34
2018-05-08T05:06:02.710Z,67.43
2018-05-08T05:08:30.110Z,67.32
2018-05-08T05:10:57.575Z,66.23
2018-05-08T05:13:24.894Z,65.09
2018-05-08T05:15:52.277Z,60.97
2018-05-08T05:18:19.709Z,52.88
2018-05-08T05:20:47.167Z,48.00
2018-05-08T05:23:14.568Z,43.20
2018-05-08T05:25:41.961Z,39.77
2018-05-08T05:28:09.430Z,37.43
2018-05-08T05:30:37.005Z,35.01
2018-05-08T05:33:04.388Z,33.02
2018-05-08T05:35:31.788Z,31.48
2018-05-08T05:37:59.209Z,28.98
2018-05-08T05:40:26.604Z,27.38
2018-05-08T05:42:54.002Z,26.49
2018-05-08T05:45:21.405Z,25.11
2018-05-08T05:47:48.798Z,25.59
2018-05-08T05:50:16.197Z,23.67
2018-05-08T05:52:43.585Z,23.19
2018-05-08T05:55:11.057Z,22.14
2018-05-08T05:57:38.517Z,22.11
2018-05-08T06:00:06.024Z,22.84
2018-05-08T06:02:33.356Z,23.33
2018-05-08T06:05:00.751Z,23.46
2018-05-08T06:07:28.147Z,23.07
2018-05-08T06:09:55.542Z,23.42
2018-05-08T06:12:23.037Z,24.52
2018-05-08T06:14:50.441Z,25.16
2018-05-08T06:17:17.863Z,25.25
2018-05-08T06:19:45.252Z,27.33
2018-05-08T06:22:12.640Z,28.12
2018-05-08T06:24:40.117Z,27.47
2018-05-08T06:27:07.500Z,26.87
2018-05-08T06:29:34.904Z,26.54
2018-05-08T06:32:02.404Z,27.10
2018-05-08T06:34:29.865Z,27.36
2018-05-08T06:36:57.327Z,27.24
2018-05-08T06:39:24.771Z,27.07
2018-05-08T06:41:52.131Z,28.08
2018-05-08T06:44:19.652Z,28.51
2018-05-08T06:46:47.031Z,28.93
2018-05-08T06:49:14.394Z,28.16
2018-05-08T06:51:41.777Z,29.16
2018-05-08T06:54:09.174Z,28.53
2018-05-08T06:56:36.574Z,26.52
2018-05-08T06:59:03.960Z,26.62
2018-05-08T07:01:31.357Z,26.94
2018-05-08T07:03:58.758Z,26.89
2018-05-08T07:06:26.173Z,27.21
2018-05-08T07:08:53.558Z,27.42
2018-05-08T07:11:20.995Z,26.49
2018-05-08T07:13:48.460Z,27.46
2018-05-08T07:16:15.983Z,26.70
2018-05-08T07:18:43.366Z,25.28
2018-05-08T07:21:10.753Z,24.83
2018-05-08T07:23:38.150Z,25.76
2018-05-08T07:26:05.545Z,25.94
2018-05-08T07:28:32.933Z,24.34
2018-05-08T07:31:00.359Z,24.94
2018-05-08T07:33:27.741Z,26.69
2018-05-08T07:35:55.141Z,25.84
2018-05-08T07:38:22.639Z,26.80
2018-05-08T07:40:49.941Z,26.58
2018-05-08T07:43:17.421Z,27.35
2018-05-08T07:45:44.908Z,28.08
2018-05-08T07:48:12.342Z,27.53
2018-05-08T07:50:39.795Z,29.06
2018-05-08T07:53:07.134Z,27.43
2018-05-08T07:55:34.569Z,28.47
2018-05-08T07:58:01.972Z,28.64
2018-05-08T08:00:29.596Z,29.37
2018-05-08T08:02:56.987Z,28.69
2018-05-08T08:05:24.377Z,28.12
2018-05-08T08:07:51.773Z,28.91
2018-05-08T08:10:19.177Z,28.82
2018-05-08T08:12:46.565Z,29.99
2018-05-08T08:15:13.962Z,29.59
2018-05-08T08:17:41.439Z,30.92
2018-05-08T08:20:08.881Z,30.31
2018-05-08T08:22:36.339Z,30.86
2018-05-08T08:25:03.741Z,31.72
2018-05-08T08:27:31.135Z,30.85
2018-05-08T08:29:58.536Z,32.69
2018-05-08T08:32:25.956Z,30.81
2018-05-08T08:34:53.414Z,31.21
2018-05-08T08:37:21.457Z,30.75
2018-05-08T08:39:48.853Z,32.29
2018-05-08T08:42:16.297Z,31.38
2018-05-08T08:44:43.699Z,32.00
2018-05-08T08:47:11.101Z,32.60
2018-05-08T08:49:38.517Z,32.37
2018-05-08T08:52:05.904Z,33.09
2018-05-08T08:54:33.307Z,33.23
2018-05-08T08:57:00.705Z,34.62
2018-05-08T08:59:28.102Z,33.13
2018-05-08T09:01:55.505Z,32.63
2018-05-08T09:04:22.897Z,31.98
2018-05-08T09:06:50.294Z,32.24
2018-05-08T09:09:17.681Z,32.00
2018-05-08T09:11:45.077Z,31.51
2018-05-08T09:14:12.470Z,31.74
2018-05-08T09:16:39.881Z,31.88
2018-05-08T09:19:07.361Z,33.19
2018-05-08T09:21:34.761Z,32.47
2018-05-08T09:24:02.173Z,33.76
2018-05-08T09:26:29.642Z,31.90
2018-05-08T09:28:57.078Z,32.50
2018-05-08T09:31:24.472Z,31.93
2018-05-08T09:33:51.908Z,30.73
2018-05-08T09:36:19.338Z,31.78
2018-05-08T09:38:46.797Z,29.36
2018-05-08T09:41:14.217Z,28.81
2018-05-08T09:43:41.725Z,29.40
2018-05-08T09:46:09.126Z,28.64
2018-05-08T09:48:36.517Z,29.29
2018-05-08T09:51:03.926Z,29.15
2018-05-08T09:53:31.312Z,29.47
2018-05-08T09:55:58.720Z,28.83
2018-05-08T09:58:26.149Z,28.94
2018-05-08T10:00:53.607Z,29.18
2018-05-08T10:03:20.949Z,30.06
2018-05-08T10:05:48.358Z,29.70
2018-05-08T10:08:15.773Z,28.35
2018-05-08T10:10:43.174Z,28.52
2018-05-08T10:13:10.560Z,28.92
2018-05-08T10:15:38.041Z,28.42
2018-05-08T10:18:05.459Z,28.55
2018-05-08T10:20:32.886Z,27.65
2018-05-08T10:23:00.277Z,28.95
2018-05-08T10:25:27.689Z,26.99
2018-05-08T10:27:55.182Z,27.71
2018-05-08T10:30:22.585Z,26.88
2018-05-08T10:32:50.047Z,27.00
2018-05-08T10:35:17.513Z,27.60
2018-05-08T10:37:44.915Z,27.83
2018-05-08T10:40:12.316Z,28.19
2018-05-08T10:42:39.711Z,27.15
2018-05-08T10:45:07.130Z,26.78
2018-05-08T10:47:34.522Z,27.12
2018-05-08T10:50:01.906Z,26.85
2018-05-08T10:52:29.313Z,26.21
2018-05-08T10:54:56.813Z,26.95
2018-05-08T10:57:24.207Z,27.09
2018-05-08T10:59:51.596Z,28.12
2018-05-08T11:02:19.073Z,28.13
2018-05-08T11:04:46.534Z,26.88
2018-05-08T11:07:13.929Z,26.48
2018-05-08T11:09:41.438Z,26.46
2018-05-08T11:12:08.905Z,26.30
2018-05-08T11:14:36.310Z,27.47
2018-05-08T11:17:03.717Z,27.42
2018-05-08T11:19:31.177Z,26.51
2018-05-08T11:21:58.633Z,25.92
2018-05-08T11:24:26.021Z,27.13
2018-05-08T11:26:53.514Z,25.88
2018-05-08T11:29:20.923Z,27.61
2018-05-08T11:31:48.321Z,26.51
2018-05-08T11:34:15.713Z,25.63
2018-05-08T11:36:43.109Z,26.94
2018-05-08T11:39:10.500Z,25.90
2018-05-08T11:41:37.986Z,26.36
2018-05-08T11:44:05.450Z,26.00
2018-05-08T11:46:32.894Z,28.52
2018-05-08T11:49:00.363Z,26.46
2018-05-08T11:51:27.832Z,26.12
2018-05-08T11:53:55.211Z,25.21
2018-05-08T11:56:22.649Z,26.55
2018-05-08T11:58:50.089Z,26.98
2018-05-08T12:01:17.493Z,27.23
2018-05-08T12:03:44.909Z,27.56
2018-05-08T12:06:12.305Z,25.79
2018-05-08T12:08:39.817Z,25.14
2018-05-08T12:11:07.213Z,25.09
2018-05-08T12:13:34.605Z,23.62
2018-05-08T12:16:01.998Z,22.75
2018-05-08T12:18:29.462Z,23.21
2018-05-08T12:20:56.862Z,23.36
2018-05-08T12:23:24.255Z,23.63
2018-05-08T12:25:51.645Z,24.80
2018-05-08T12:28:19.029Z,22.93
2018-05-08T12:30:46.630Z,23.50
2018-05-08T12:33:13.926Z,23.69
2018-05-08T12:35:41.321Z,25.56
2018-05-08T12:38:08.815Z,25.97
2018-05-08T12:40:36.282Z,25.69
2018-05-08T12:43:03.668Z,24.57
2018-05-08T12:45:31.061Z,25.25
2018-05-08T12:47:58.458Z,25.02
2018-05-08T12:50:25.934Z,27.56
2018-05-08T12:52:53.262Z,25.51
2018-05-08T12:55:20.653Z,24.68
2018-05-08T12:57:48.157Z,23.87
2018-05-08T13:00:15.635Z,23.22
2018-05-08T13:02:43.025Z,23.47
2018-05-08T13:05:10.424Z,24.91
2018-05-08T13:07:37.829Z,25.34
2018-05-08T13:10:05.222Z,24.66
2018-05-08T13:12:32.619Z,24.66
2018-05-08T13:15:00.001Z,24.86
2018-05-08T13:17:27.429Z,25.88
2018-05-08T13:19:54.890Z,27.15
2018-05-08T13:22:22.329Z,26.67
2018-05-08T13:24:49.718Z,26.42
2018-05-08T13:27:17.146Z,25.91
2018-05-08T13:29:44.601Z,25.83
2018-05-08T13:32:12.057Z,25.45
2018-05-08T13:34:39.445Z,26.72
2018-05-08T13:37:06.958Z,25.42
2018-05-08T13:39:34.444Z,25.38
2018-05-08T13:42:01.918Z,25.13
2018-05-08T13:44:29.298Z,25.86
2018-05-08T13:46:56.693Z,25.93
2018-05-08T13:49:24.090Z,25.65
2018-05-08T13:51:51.511Z,25.46
2018-05-08T13:54:18.977Z,26.62
2018-05-08T13:56:46.438Z,24.01
2018-05-08T13:59:13.889Z,24.51
2018-05-08T14:01:41.370Z,24.74
2018-05-08T14:04:08.752Z,24.13
2018-05-08T14:06:36.181Z,24.46
2018-05-08T14:09:03.555Z,24.54
2018-05-08T14:11:30.991Z,25.49
2018-05-08T14:13:58.429Z,24.91
2018-05-08T14:16:25.925Z,24.02
2018-05-08T14:18:53.330Z,24.11
2018-05-08T14:21:20.816Z,25.38
2018-05-08T14:23:48.209Z,23.37
2018-05-08T14:26:15.602Z,24.18
2018-05-08T14:28:43.012Z,23.89
2018-05-08T14:31:10.457Z,23.98
2018-05-08T14:33:37.849Z,24.47
2018-05-08T14:36:05.291Z,23.66
2018-05-08T14:38:32.667Z,23.44
2018-05-08T14:41:00.049Z,23.48
2018-05-08T14:43:27.544Z,24.55
2018-05-08T14:45:54.986Z,24.38
2018-05-08T14:48:22.386Z,23.76
2018-05-08T14:50:49.797Z,24.66
2018-05-08T14:53:17.198Z,24.23
2018-05-08T14:55:44.610Z,24.71
2018-05-08T14:58:12.016Z,24.48
2018-05-08T15:00:39.405Z,23.68
2018-05-08T15:03:06.873Z,23.31
2018-05-08T15:05:34.345Z,22.86
2018-05-08T15:08:01.799Z,23.62
2018-05-08T15:10:29.189Z,23.82
2018-05-08T15:12:56.586Z,24.06
2018-05-08T15:15:23.968Z,24.37
2018-05-08T15:17:51.372Z,24.24
2018-05-08T15:20:18.776Z,23.22
2018-05-08T15:22:46.233Z,23.68
2018-05-08T15:25:13.692Z,23.13
2018-05-08T15:27:41.085Z,23.06
2018-05-08T15:30:08.470Z,23.86
2018-05-08T15:32:35.969Z,23.51
2018-05-08T15:35:03.421Z,24.08
2018-05-08T15:37:30.818Z,24.46
2018-05-08T15:39:58.231Z,24.49
2018-05-08T15:42:25.690Z,23.44
2018-05-08T15:44:53.080Z,23.77
2018-05-08T15:49:43.065Z,23.67
2018-05-08T15:52:10.464Z,24.66
2018-05-08T15:54:37.960Z,23.44
2018-05-08T15:57:05.409Z,24.25
2018-05-08T15:59:32.878Z,23.91
2018-05-08T16:02:00.281Z,24.09
2018-05-08T16:04:27.676Z,24.22
2018-05-08T16:06:55.064Z,23.92
2018-05-08T16:09:22.465Z,23.66
2018-05-08T16:11:49.858Z,24.01
2018-05-08T16:14:17.330Z,24.63
2018-05-08T16:16:44.717Z,24.54
2018-05-08T16:19:12.121Z,24.94
2018-05-08T16:21:39.595Z,24.75
2018-05-08T16:24:07.038Z,25.27
2018-05-08T16:26:34.507Z,25.76
2018-05-08T16:29:01.898Z,25.06
2018-05-08T16:31:29.319Z,24.88
2018-05-08T16:33:56.760Z,25.00
2018-05-08T16:36:24.146Z,25.28
2018-05-08T16:38:51.597Z,26.32
2018-05-08T16:41:18.974Z,26.22
2018-05-08T16:43:46.385Z,25.65
2018-05-08T16:46:13.825Z,25.65
2018-05-08T16:48:41.301Z,25.71
2018-05-08T16:51:08.793Z,25.54
2018-05-08T16:53:36.186Z,25.60
2018-05-08T16:56:03.587Z,25.77
2018-05-08T16:58:31.006Z,25.73
2018-05-08T17:00:58.394Z,26.60
2018-05-08T17:03:25.837Z,26.23
2018-05-08T17:05:53.305Z,27.92
2018-05-08T17:08:20.730Z,26.43
2018-05-08T17:10:48.141Z,26.67
2018-05-08T17:13:15.547Z,26.65
2018-05-08T17:15:43.044Z,26.62
2018-05-08T17:18:10.433Z,26.65
2018-05-08T17:20:37.867Z,26.85
2018-05-08T17:23:05.278Z,26.47
2018-05-08T17:25:32.694Z,27.23
2018-05-08T17:28:00.087Z,27.01
2018-05-08T17:30:27.474Z,26.50
2018-05-08T17:32:54.883Z,26.87
2018-05-08T17:35:22.286Z,26.36
2018-05-08T17:37:49.729Z,26.05
2018-05-08T17:40:17.137Z,26.33
2018-05-08T17:42:44.554Z,26.88
2018-05-08T17:45:12.019Z,26.63
2018-05-08T17:47:39.413Z,26.70
2018-05-08T17:50:06.849Z,27.28
2018-05-08T17:52:34.258Z,27.14
2018-05-08T17:55:01.647Z,27.80
2018-05-08T17:57:29.056Z,27.60
2018-05-08T17:59:56.469Z,27.75
2018-05-08T18:02:23.953Z,27.81
2018-05-08T18:04:51.370Z,28.22
2018-05-08T18:07:18.770Z,28.24
2018-05-08T18:09:46.173Z,28.64
2018-05-08T18:12:13.559Z,29.02
2018-05-08T18:14:41.001Z,28.74
2018-05-08T18:17:08.468Z,28.88
2018-05-08T18:19:35.950Z,29.20
2018-05-08T18:22:03.401Z,28.86
2018-05-08T18:24:30.784Z,29.40
2018-05-08T18:26:58.190Z,29.70
2018-05-08T18:29:25.585Z,30.31
2018-05-08T18:31:52.993Z,29.77
2018-05-08T18:34:20.527Z,29.68
2018-05-08T18:36:47.785Z,29.93
2018-05-08T18:39:15.193Z,30.20
2018-05-08T18:41:42.630Z,30.35
2018-05-08T18:44:10.041Z,30.36
2018-05-08T18:46:37.615Z,30.69
2018-05-08T18:49:05.095Z,30.56
2018-05-08T18:51:32.483Z,30.68
2018-05-08T18:53:59.882Z,30.65
2018-05-08T18:56:27.274Z,30.93
2018-05-08T18:58:54.738Z,31.09
2018-05-08T19:01:22.226Z,31.42
2018-05-08T19:03:49.686Z,31.55
2018-05-08T19:06:17.150Z,31.71
2018-05-08T19:08:44.647Z,31.80
2018-05-08T19:11:17.685Z,32.06
2018-05-08T19:13:45.096Z,32.40
2018-05-08T19:16:12.486Z,32.42
2018-05-08T19:18:45.421Z,33.29
2018-05-08T19:21:12.814Z,33.28
2018-05-08T19:23:45.997Z,33.73
2018-05-08T19:26:13.398Z,34.17
2018-05-08T19:28:46.577Z,34.04
2018-05-08T19:31:13.962Z,34.15
2018-05-08T19:33:41.390Z,34.65
2018-05-08T19:36:14.553Z,35.19
2018-05-08T19:38:41.967Z,35.34
2018-05-08T19:41:09.369Z,35.22
2018-05-08T19:43:36.770Z,35.19
2018-05-08T19:46:04.161Z,35.45
2018-05-08T19:48:31.556Z,35.54
2018-05-08T19:50:58.953Z,35.41
2018-05-08T19:53:26.437Z,35.91
2018-05-08T19:55:53.962Z,35.79
2018-05-08T19:58:21.442Z,35.92
2018-05-08T20:00:48.829Z,36.31
2018-05-08T20:03:16.273Z,36.94
2018-05-08T20:05:43.664Z,37.15
2018-05-08T20:08:11.065Z,37.42
2018-05-08T20:10:38.462Z,37.75
2018-05-08T20:13:05.857Z,37.90
2018-05-08T20:15:33.360Z,38.28
2018-05-08T20:18:00.853Z,38.57
2018-05-08T20:20:28.365Z,39.12
2018-05-08T20:22:55.775Z,39.20
2018-05-08T20:25:23.197Z,39.58
2018-05-08T20:27:50.597Z,39.90
2018-05-08T20:30:18.039Z,40.15
2018-05-08T20:32:45.492Z,40.25
2018-05-08T20:35:12.909Z,40.70
2018-05-08T20:37:40.313Z,40.81
2018-05-08T20:40:07.717Z,40.71
2018-05-08T20:42:35.193Z,40.97
2018-05-08T20:45:02.638Z,41.44
2018-05-08T20:47:30.033Z,41.71
2018-05-08T20:49:57.458Z,41.89
2018-05-08T20:52:24.910Z,42.10
2018-05-08T20:54:52.307Z,42.51
2018-05-08T20:57:19.700Z,42.25
2018-05-08T20:59:47.093Z,42.51
2018-05-08T21:02:14.494Z,42.14
2018-05-08T21:04:41.904Z,42.44
2018-05-08T21:07:09.298Z,42.67
2018-05-08T21:09:36.689Z,42.81
2018-05-08T21:12:04.089Z,42.71
2018-05-08T21:14:31.483Z,43.02
2018-05-08T21:16:58.865Z,43.16
2018-05-08T21:19:26.270Z,43.19
2018-05-08T21:21:53.654Z,43.15
2018-05-08T21:24:22.023Z,43.14
2018-05-08T21:29:29.020Z,43.42
2018-05-08T21:31:56.424Z,43.26
2018-05-08T21:34:23.850Z,43.40
2018-05-08T21:36:51.232Z,43.63
2018-05-08T21:39:18.653Z,43.72
2018-05-08T21:41:46.060Z,43.98
2018-05-08T21:44:13.462Z,44.20
2018-05-08T21:46:40.844Z,44.39
2018-05-08T21:49:08.301Z,44.65
2018-05-08T21:51:35.767Z,45.19
2018-05-08T21:54:03.152Z,44.85
2018-05-08T21:56:30.562Z,44.79
2018-05-08T21:58:57.964Z,44.68
2018-05-08T22:01:25.358Z,44.80
2018-05-08T22:03:52.776Z,44.96
2018-05-08T22:06:20.189Z,45.04
2018-05-08T22:08:47.593Z,45.20
2018-05-08T22:11:14.984Z,45.07
2018-05-08T22:13:42.374Z,45.47
2018-05-08T22:16:09.761Z,45.46
2018-05-08T22:18:37.165Z,45.39
2018-05-08T22:21:04.561Z,45.34
2018-05-08T22:23:31.961Z,45.37
2018-05-08T22:25:59.454Z,45.35
2018-05-08T22:28:26.855Z,45.66
2018-05-08T22:30:54.255Z,45.58
2018-05-08T22:33:21.705Z,45.25
2018-05-08T22:35:49.098Z,45.75
2018-05-08T22:38:16.505Z,45.40
2018-05-08T22:40:43.946Z,45.64
2018-05-08T22:43:11.355Z,45.47
2018-05-08T22:45:38.877Z,45.92
2018-05-08T22:48:06.269Z,45.45
2018-05-08T22:50:33.673Z,45.20
2018-05-08T22:53:01.061Z,45.40
2018-05-08T22:55:28.462Z,45.65
2018-05-08T22:57:55.956Z,45.64
2018-05-08T23:00:23.392Z,45.52
2018-05-08T23:02:50.857Z,45.77
2018-05-08T23:05:18.308Z,45.88
2018-05-08T23:07:45.761Z,45.92
2018-05-08T23:10:13.169Z,45.74
2018-05-08T23:12:40.556Z,46.05
2018-05-08T23:15:07.951Z,46.16
2018-05-08T23:17:35.399Z,46.16
2018-05-08T23:20:02.899Z,46.21
2018-05-08T23:22:30.307Z,46.49
2018-05-08T23:24:57.702Z,46.26
2018-05-08T23:27:25.166Z,46.33
2018-05-08T23:29:52.625Z,46.52
2018-05-08T23:32:20.076Z,46.47
2018-05-08T23:34:47.476Z,46.53
2018-05-08T23:37:14.874Z,46.92
2018-05-08T23:39:42.261Z,46.80
2018-05-08T23:42:09.649Z,46.91
2018-05-08T23:44:37.156Z,46.92
2018-05-08T23:47:04.628Z,46.98
2018-05-08T23:49:32.033Z,47.07
2018-05-08T23:51:59.429Z,47.19
2018-05-08T23:54:26.821Z,47.17
2018-05-08T23:56:54.207Z,47.35
2018-05-08T23:59:21.616Z,47.42
